Hauptseite
METAR-TAF:

METAR-TAF

Flughäfen :

Mailand, Italien

Flughafen Mailand-Linate

Breite: 45-26N, Länge: 009-17E, Höhe: 107 m

Beobachtung

Neuester Wetterbericht von vor 34 Minuten, um 19:20 UTC
Wind 2 kt aus unterschiedlichen Richtungen
Temperatur 3°C
Luftfeuchtigkeit 81%
Luftdruck 1014 hPa
Sichtweite 10 km oder mehr
keine Wolken unter 1500 m und keine Kumulonimbus oder Gewitterwolken

METAR: LIML 221920Z VRB02KT CAVOK 03/M00 Q1014 NOSIG

Zeit: 20:54 (19:54 UTC)

Prognose

Neuester Wetterbericht von vor 2 Stunden und 54 Minuten, um 17:00 UTC
Gültige Prognose vom 22 um 18 UTC bis 23 um 18 UTC
Wind 5 kt aus unterschiedlichen Richtungen
Sichtweite 10 km oder mehr
keine Wolken unter 1500 m und keine Kumulonimbus oder Gewitterwolken
Zeitweise
vom 23 um 02 UTC bis 23 um 07 UTC
Sichtweite: 3500 m
feuchter Dunst

TAF: LIML 221700Z 2218/2318 VRB05KT CAVOK TEMPO 2302/2307 3500 BR

Wetterbeobachtungen und Prognosen von mehr als 4000 Flughäfen (METAR und TAF Bericht).

Die verfügbaren Stationen werden durch gelbe und rote Markierungen auf der Karte dargestellt.

Führen Sie die Maus auf sie, um den Namen der Station zu sehen.

Darauf klicken, um die Beobachtung von Wetterbeobachtungen und Prognosen zu sehen.

Um die Karte zu ändern : klicken Sie auf den grünen Tasten mit einem schwarzen Kreuz Zum Vergrößern, auf den grünen Button mit einem Gedankenstrich zu verkleinern, oder auf die grünen Pfeile für benachbarte Karten.


METAR-TAF: